Time;durP1;ratioP1;P1;durP2;ratioP2;P2;SDS_P1;SDS_P2;PMS_P1;PMS_P2;Temp;Humidity;BMP_temperature;BMP_pressure;BME280_temperature;BME280_humidity;BME280_pressure;Samples;Min_cycle;Max_cycle;Signal;HPM_P1;HPM_P2
2021/12/26 00:00:56;;;;;;;7.07;6.38;;;-0.80;99.90;;;;;;4973775;28;20275;-73
2021/12/26 00:03:23;;;;;;;6.57;5.88;;;-0.80;99.90;;;;;;4973786;28;20037;-73
2021/12/26 00:05:49;;;;;;;6.07;5.47;;;-0.90;99.90;;;;;;4956317;28;20428;-73
2021/12/26 00:08:15;;;;;;;7.53;6.50;;;-0.90;99.90;;;;;;4973689;28;20027;-73
2021/12/26 00:10:41;;;;;;;6.53;5.93;;;-0.80;99.90;;;;;;4956367;28;20097;-73
2021/12/26 00:13:06;;;;;;;7.10;6.40;;;-0.80;99.90;;;;;;4956237;28;20062;-73
2021/12/26 00:15:32;;;;;;;5.97;5.35;;;-0.80;99.90;;;;;;4973509;28;20473;-73
2021/12/26 00:17:58;;;;;;;7.20;5.50;;;-0.60;99.90;;;;;;4973599;28;20023;-73
2021/12/26 00:20:23;;;;;;;6.38;5.78;;;-0.70;99.90;;;;;;4956218;28;20032;-73
2021/12/26 00:22:50;;;;;;;6.30;5.70;;;-0.70;99.90;;;;;;4973379;28;20401;-73
2021/12/26 00:25:16;;;;;;;6.95;6.00;;;-0.80;99.90;;;;;;4972791;28;20469;-72
2021/12/26 00:27:42;;;;;;;6.35;5.57;;;-0.80;99.90;;;;;;4973358;28;20041;-71
2021/12/26 00:30:13;;;;;;;6.25;5.50;;;-0.90;99.90;;;;;;4973334;28;20066;-71
2021/12/26 00:32:39;;;;;;;7.63;6.18;;;-1.00;99.90;;;;;;4973147;28;20067;-71
2021/12/26 00:35:05;;;;;;;6.88;5.93;;;-0.90;99.90;;;;;;4973121;28;20073;-71
2021/12/26 00:37:31;;;;;;;6.35;5.75;;;-0.80;99.90;;;;;;4955742;28;20019;-70
2021/12/26 00:39:57;;;;;;;6.53;5.43;;;-0.80;99.90;;;;;;4973291;28;20030;-71
2021/12/26 00:42:22;;;;;;;5.78;5.28;;;-0.80;99.90;;;;;;4972896;28;20585;-71
2021/12/26 00:44:48;;;;;;;7.25;5.50;;;-0.60;99.90;;;;;;4972927;28;20027;-70
2021/12/26 00:47:13;;;;;;;6.10;5.50;;;-0.60;99.90;;;;;;4973192;28;20120;-71
2021/12/26 00:49:40;;;;;;;6.35;5.75;;;-0.80;99.90;;;;;;4972976;28;20031;-71
2021/12/26 00:52:07;;;;;;;6.25;5.47;;;-0.70;99.90;;;;;;4972851;28;20027;-71
2021/12/26 00:54:34;;;;;;;6.55;5.55;;;-0.70;99.90;;;;;;4972799;28;20481;-71
2021/12/26 00:57:00;;;;;;;6.18;5.53;;;-0.70;99.90;;;;;;4972879;28;20541;-72
2021/12/26 00:59:26;;;;;;;5.88;5.25;;;-0.90;99.90;;;;;;4972953;28;20109;-72
2021/12/26 01:01:53;;;;;;;5.93;5.32;;;-0.80;99.90;;;;;;4972714;28;20106;-72
2021/12/26 01:04:20;;;;;;;7.65;5.50;;;-0.80;99.90;;;;;;4972742;28;20030;-72
2021/12/26 01:06:45;;;;;;;6.65;5.75;;;-0.80;99.90;;;;;;4972736;28;20033;-72
2021/12/26 01:09:15;;;;;;;6.85;5.72;;;-0.80;99.90;;;;;;4972908;28;20027;-72
2021/12/26 01:11:48;;;;;;;5.47;4.97;;;-0.80;99.90;;;;;;4972545;28;20130;-73
2021/12/26 01:14:14;;;;;;;6.15;5.55;;;-0.80;99.90;;;;;;4955323;28;20436;-72
2021/12/26 01:16:40;;;;;;;5.63;4.95;;;-0.70;99.90;;;;;;4972708;28;20046;-73
2021/12/26 01:19:13;;;;;;;6.35;5.47;;;-0.60;99.90;;;;;;4955529;28;20387;-73
2021/12/26 01:21:39;;;;;;;6.28;5.45;;;-0.70;99.90;;;;;;4972643;28;20022;-73
2021/12/26 01:24:09;;;;;;;5.25;4.70;;;-0.70;99.90;;;;;;4955171;28;20476;-72
2021/12/26 01:26:34;;;;;;;5.68;5.07;;;-0.60;99.90;;;;;;4972558;28;20106;-73
2021/12/26 01:29:00;;;;;;;6.45;5.38;;;-0.60;99.90;;;;;;4972743;28;20117;-73
2021/12/26 01:31:26;;;;;;;6.38;5.38;;;-0.70;99.90;;;;;;4955243;28;20030;-73
2021/12/26 01:33:56;;;;;;;6.15;5.05;;;-0.60;99.90;;;;;;4972556;28;20031;-72
2021/12/26 01:36:21;;;;;;;5.75;5.15;;;-0.70;99.90;;;;;;4956504;28;20030;-72
2021/12/26 01:38:47;;;;;;;5.47;4.82;;;-0.60;99.90;;;;;;4976410;28;20023;-72
2021/12/26 01:41:16;;;;;;;6.82;5.93;;;-0.60;99.90;;;;;;5005217;22;20022;-76
2021/12/26 01:43:45;;;;;;;5.95;5.35;;;-0.60;99.90;;;;;;5035337;28;20037;-74
2021/12/26 01:46:11;;;;;;;5.78;4.80;;;-0.70;99.90;;;;;;5035057;28;20517;-73
2021/12/26 01:48:37;;;;;;;7.00;5.85;;;-0.70;99.90;;;;;;5035222;28;20026;-74
2021/12/26 01:51:03;;;;;;;6.53;5.72;;;-0.70;99.90;;;;;;5049899;28;20039;-73
2021/12/26 01:53:37;;;;;;;6.22;5.63;;;-0.60;99.90;;;;;;5053718;28;20701;-74
2021/12/26 01:56:07;;;;;;;6.18;5.43;;;-0.60;99.90;;;;;;5054988;28;20028;-73
2021/12/26 01:58:33;;;;;;;6.85;5.80;;;-0.60;99.90;;;;;;5054852;28;20474;-73
2021/12/26 02:01:04;;;;;;;6.00;5.40;;;-0.80;99.90;;;;;;5054898;28;20061;-74
2021/12/26 02:03:30;;;;;;;5.85;5.25;;;-0.70;99.90;;;;;;5054739;28;20025;-73
2021/12/26 02:05:56;;;;;;;7.70;6.18;;;-0.60;99.90;;;;;;5054581;28;20044;-73
2021/12/26 02:08:22;;;;;;;6.03;5.43;;;-0.50;99.90;;;;;;5054689;28;20490;-73
2021/12/26 02:10:48;;;;;;;6.63;5.95;;;-0.50;99.90;;;;;;5054696;28;20025;-73
2021/12/26 02:13:14;;;;;;;7.20;6.43;;;-0.60;99.90;;;;;;5053140;28;20501;-73
2021/12/26 02:15:40;;;;;;;8.52;6.82;;;-0.50;99.90;;;;;;5054455;28;20033;-73
2021/12/26 02:18:07;;;;;;;7.00;6.30;;;-0.70;99.90;;;;;;5053304;28;20541;-72
2021/12/26 02:23:33;;;;;;;7.40;6.38;;;-0.60;99.90;;;;;;5054730;28;20397;-72
2021/12/26 02:28:38;;;;;;;7.53;6.75;;;-0.70;99.90;;;;;;5054376;28;20017;-74
2021/12/26 02:31:04;;;;;;;7.63;6.82;;;-0.60;99.90;;;;;;5054250;28;20517;-72
2021/12/26 02:33:30;;;;;;;7.97;6.95;;;-0.80;99.90;;;;;;5054115;28;20470;-72
2021/12/26 02:35:56;;;;;;;7.68;6.90;;;-0.80;99.90;;;;;;5053317;28;20036;-72
2021/12/26 02:38:21;;;;;;;7.80;6.90;;;-0.80;99.90;;;;;;5054053;28;20036;-72
2021/12/26 02:40:49;;;;;;;9.77;7.18;;;-0.80;99.90;;;;;;5053489;28;20028;-74
2021/12/26 02:43:19;;;;;;;7.93;7.05;;;-0.80;99.90;;;;;;5054155;28;20056;-74
2021/12/26 02:45:45;;;;;;;8.55;7.05;;;-0.90;99.90;;;;;;5052474;28;20025;-73
2021/12/26 02:48:12;;;;;;;8.52;7.40;;;-0.90;99.90;;;;;;5053411;28;20029;-73
2021/12/26 02:50:39;;;;;;;9.07;7.57;;;-0.90;99.90;;;;;;5053813;28;20043;-74
2021/12/26 02:53:05;;;;;;;8.80;7.90;;;-0.80;99.90;;;;;;5053816;28;20085;-74
2021/12/26 02:55:31;;;;;;;8.70;7.72;;;-0.80;99.90;;;;;;5052213;28;20079;-75
2021/12/26 02:58:00;;;;;;;8.30;7.50;;;-0.90;99.90;;;;;;5053716;28;20029;-76
2021/12/26 03:00:31;;;;;;;9.10;8.07;;;-0.90;99.90;;;;;;5052644;28;20078;-76
2021/12/26 03:02:59;;;;;;;9.50;8.00;;;-0.80;99.90;;;;;;5052305;28;20036;-76
2021/12/26 03:05:30;;;;;;;8.52;7.53;;;-0.80;99.90;;;;;;5052285;28;20422;-76
2021/12/26 03:07:56;;;;;;;8.90;7.95;;;-0.80;99.90;;;;;;5053795;28;20133;-76
2021/12/26 03:10:25;;;;;;;10.63;8.68;;;-0.90;99.90;;;;;;5053953;28;20025;-75
2021/12/26 03:12:54;;;;;;;9.18;8.13;;;-0.90;99.90;;;;;;5053438;28;20052;-75
2021/12/26 03:15:21;;;;;;;9.63;8.60;;;-0.80;99.90;;;;;;5053287;28;20047;-75
2021/12/26 03:17:47;;;;;;;9.55;8.50;;;-0.90;99.90;;;;;;5053585;28;20032;-74
2021/12/26 03:20:17;;;;;;;9.55;8.55;;;-0.90;99.90;;;;;;5047217;28;20491;-75
2021/12/26 03:22:44;;;;;;;10.75;9.18;;;-0.90;99.90;;;;;;5045652;28;20029;-75
2021/12/26 03:25:22;;;;;;;9.98;8.38;;;-0.80;99.90;;;;;;5033941;28;20032;-75
2021/12/26 03:27:49;;;;;;;9.75;8.75;;;-0.80;99.90;;;;;;5044632;28;20021;-75
2021/12/26 03:30:18;;;;;;;8.70;7.88;;;-0.90;99.90;;;;;;5052008;28;20021;-75
2021/12/26 03:32:44;;;;;;;10.18;9.10;;;-0.80;99.90;;;;;;5051648;28;20363;-74
2021/12/26 03:35:10;;;;;;;9.95;8.70;;;-0.70;99.90;;;;;;5052938;28;20021;-74
2021/12/26 03:37:37;;;;;;;9.68;8.68;;;-0.80;99.90;;;;;;5052951;28;20033;-75
2021/12/26 03:40:04;;;;;;;11.43;9.82;;;-0.80;99.90;;;;;;5045309;28;20080;-75
2021/12/26 03:42:31;;;;;;;10.60;9.50;;;-0.80;99.90;;;;;;5031731;28;20060;-75
2021/12/26 03:44:57;;;;;;;10.52;9.43;;;-0.80;99.90;;;;;;5032794;28;20025;-75
2021/12/26 03:47:23;;;;;;;10.32;9.15;;;-0.80;99.90;;;;;;5031544;28;20140;-75
2021/12/26 03:49:50;;;;;;;10.68;9.65;;;-0.80;99.90;;;;;;5042367;28;20029;-75
2021/12/26 03:52:15;;;;;;;10.95;9.80;;;-0.80;99.90;;;;;;5052716;28;20535;-75
2021/12/26 03:54:41;;;;;;;11.00;9.85;;;-0.70;99.90;;;;;;5052601;28;20037;-75
2021/12/26 03:57:07;;;;;;;11.15;9.38;;;-0.70;99.90;;;;;;5052773;28;20021;-75
2021/12/26 03:59:33;;;;;;;11.25;9.90;;;-0.80;99.90;;;;;;5051827;28;20363;-76
2021/12/26 04:01:58;;;;;;;11.15;9.73;;;-0.80;99.90;;;;;;5052437;28;20033;-76
2021/12/26 04:04:24;;;;;;;13.80;10.70;;;-0.70;99.90;;;;;;5052408;28;20371;-77
2021/12/26 04:06:50;;;;;;;11.00;9.82;;;-0.70;99.90;;;;;;5053785;28;20029;-77
2021/12/26 04:09:16;;;;;;;11.32;10.20;;;-0.70;99.90;;;;;;5052836;28;20052;-77
2021/12/26 04:11:44;;;;;;;12.63;10.27;;;-0.70;99.90;;;;;;5053559;28;20033;-78
2021/12/26 04:14:12;;;;;;;12.02;10.73;;;-0.70;99.90;;;;;;5052205;28;20532;-76
2021/12/26 04:16:37;;;;;;;11.70;10.50;;;-0.70;99.90;;;;;;5050923;28;20063;-77
2021/12/26 04:19:03;;;;;;;11.35;10.15;;;-0.80;99.90;;;;;;5052090;28;20538;-76
2021/12/26 04:21:29;;;;;;;13.05;10.80;;;-0.80;99.90;;;;;;5052069;28;20053;-76
2021/12/26 04:23:55;;;;;;;12.18;10.88;;;-0.80;99.90;;;;;;5051930;28;20098;-75
2021/12/26 04:26:21;;;;;;;11.77;10.55;;;-0.70;99.90;;;;;;5052127;28;20029;-75
2021/12/26 04:28:46;;;;;;;12.32;10.38;;;-0.80;99.90;;;;;;5052422;28;20047;-76
2021/12/26 04:31:12;;;;;;;12.43;10.93;;;-0.70;99.90;;;;;;5054348;28;20028;-77
2021/12/26 04:33:37;;;;;;;12.50;11.20;;;-0.70;99.90;;;;;;5052340;28;20033;-77
2021/12/26 04:36:03;;;;;;;13.85;11.88;;;-0.70;99.90;;;;;;5052490;28;20025;-77
2021/12/26 04:38:29;;;;;;;12.65;11.35;;;-0.70;99.90;;;;;;5051302;28;20020;-76
2021/12/26 04:40:54;;;;;;;12.93;11.45;;;-0.70;99.90;;;;;;5050646;28;20379;-77
2021/12/26 04:43:21;;;;;;;12.27;10.98;;;-0.70;99.90;;;;;;5051751;28;20071;-76
2021/12/26 04:45:47;;;;;;;12.75;11.40;;;-0.80;99.90;;;;;;5051620;28;20025;-76
2021/12/26 04:48:14;;;;;;;12.50;11.18;;;-0.70;99.90;;;;;;5051750;28;20664;-76
2021/12/26 04:50:39;;;;;;;13.52;12.07;;;-0.80;99.90;;;;;;5051671;28;20029;-76
2021/12/26 04:53:05;;;;;;;12.63;11.32;;;-0.70;99.90;;;;;;5050267;28;20028;-77
2021/12/26 04:55:31;;;;;;;12.82;11.27;;;-0.70;99.90;;;;;;5051427;28;20059;-77
2021/12/26 04:57:57;;;;;;;13.38;11.98;;;-0.70;99.90;;;;;;5051678;28;20106;-77
2021/12/26 05:00:27;;;;;;;13.35;11.95;;;-0.70;99.90;;;;;;5050271;28;20025;-77
2021/12/26 05:02:53;;;;;;;13.77;12.13;;;-0.60;99.90;;;;;;5051397;28;20044;-77
2021/12/26 05:05:19;;;;;;;12.43;10.65;;;-0.50;99.90;;;;;;5050002;28;20059;-76
2021/12/26 05:07:45;;;;;;;13.95;12.00;;;-0.50;99.90;;;;;;5050274;28;20055;-76
2021/12/26 05:10:13;;;;;;;12.75;11.45;;;-0.40;99.90;;;;;;5050262;28;20028;-78
2021/12/26 05:12:40;;;;;;;12.63;11.25;;;-0.50;99.90;;;;;;5052204;28;20106;-77
2021/12/26 05:15:07;;;;;;;13.30;11.65;;;-0.50;99.90;;;;;;5053572;28;20017;-77
2021/12/26 05:17:32;;;;;;;13.40;12.00;;;-0.40;99.90;;;;;;5052196;28;20120;-77
2021/12/26 05:19:58;;;;;;;13.00;11.70;;;-0.40;99.90;;;;;;5050085;28;20100;-77
2021/12/26 05:22:24;;;;;;;14.75;12.45;;;-0.40;99.90;;;;;;5051375;28;20509;-77
2021/12/26 05:24:49;;;;;;;14.75;13.15;;;-0.40;99.90;;;;;;5051182;28;20375;-77
2021/12/26 05:27:15;;;;;;;13.75;12.35;;;-0.40;99.90;;;;;;5051398;28;20029;-76
2021/12/26 05:29:41;;;;;;;14.25;12.52;;;-0.40;99.90;;;;;;5051237;28;20116;-77
2021/12/26 05:32:07;;;;;;;13.90;12.50;;;-0.40;99.90;;;;;;5051164;28;20433;-77
2021/12/26 05:34:32;;;;;;;12.90;11.55;;;-0.40;99.90;;;;;;5051055;28;20054;-78
2021/12/26 05:36:58;;;;;;;14.02;11.93;;;-0.40;99.90;;;;;;5049987;28;20047;-78
2021/12/26 05:39:23;;;;;;;14.20;12.70;;;-0.40;99.90;;;;;;5049386;28;20031;-76
2021/12/26 05:41:49;;;;;;;14.70;12.43;;;-0.40;99.90;;;;;;5039401;28;20112;-76
2021/12/26 05:44:15;;;;;;;15.18;12.82;;;-0.50;99.90;;;;;;5043362;28;20022;-77
2021/12/26 05:46:41;;;;;;;15.07;12.55;;;-0.50;99.90;;;;;;5049579;28;20049;-76
2021/12/26 05:49:07;;;;;;;14.95;12.95;;;-0.40;99.90;;;;;;5051127;28;20065;-76
2021/12/26 05:51:32;;;;;;;15.48;13.35;;;-0.40;99.90;;;;;;5051147;28;20580;-75
2021/12/26 05:53:58;;;;;;;15.73;14.02;;;-0.40;99.90;;;;;;5049405;28;20375;-76
2021/12/26 05:56:23;;;;;;;17.38;14.77;;;-0.40;99.90;;;;;;5049865;28;20116;-76
2021/12/26 05:58:49;;;;;;;16.67;14.40;;;-0.40;99.90;;;;;;5049640;28;20120;-76
2021/12/26 06:01:15;;;;;;;15.32;13.30;;;-0.40;99.90;;;;;;5050923;28;20336;-76
2021/12/26 06:03:40;;;;;;;16.40;14.68;;;-0.40;99.90;;;;;;5049444;28;20555;-77
2021/12/26 06:06:06;;;;;;;15.23;13.60;;;-0.40;99.90;;;;;;5050885;28;20032;-75
2021/12/26 06:08:32;;;;;;;16.17;14.48;;;-0.30;99.90;;;;;;5049615;28;20390;-76
2021/12/26 06:10:58;;;;;;;16.92;14.63;;;-0.30;99.90;;;;;;5049671;28;20120;-76
2021/12/26 06:13:23;;;;;;;18.95;16.95;;;-0.30;99.90;;;;;;5049329;28;20033;-76
2021/12/26 06:15:49;;;;;;;18.10;15.18;;;-0.20;99.90;;;;;;5049593;28;20025;-76
2021/12/26 06:18:15;;;;;;;16.45;14.70;;;-0.30;99.90;;;;;;5049460;28;20037;-76
2021/12/26 06:20:40;;;;;;;24.88;22.30;;;-0.20;99.90;;;;;;5050667;28;20036;-76
2021/12/26 06:23:06;;;;;;;16.30;14.60;;;-0.30;99.90;;;;;;5052895;28;20437;-76
2021/12/26 06:25:32;;;;;;;17.83;13.95;;;-0.30;99.90;;;;;;5054267;28;20024;-76
2021/12/26 06:27:57;;;;;;;16.13;14.38;;;-0.30;99.90;;;;;;5052480;28;20033;-76
2021/12/26 06:30:23;;;;;;;15.70;13.57;;;-0.20;99.90;;;;;;5054461;28;20037;-76
2021/12/26 06:32:49;;;;;;;16.85;15.07;;;-0.20;99.90;;;;;;5051510;28;20030;-76
2021/12/26 06:35:14;;;;;;;18.08;15.27;;;-0.30;99.90;;;;;;5034229;28;20034;-76
2021/12/26 06:37:41;;;;;;;18.27;16.30;;;-0.20;99.90;;;;;;5050254;28;20024;-76
2021/12/26 06:40:09;;;;;;;16.27;14.57;;;-0.30;99.90;;;;;;5045001;28;20091;-76
2021/12/26 06:42:40;;;;;;;17.88;15.90;;;-0.30;99.90;;;;;;5049954;28;20039;-76
2021/12/26 06:45:08;;;;;;;16.50;14.80;;;-0.30;99.90;;;;;;5052846;28;20048;-76
2021/12/26 06:47:33;;;;;;;17.85;16.00;;;-0.30;99.90;;;;;;5044291;28;20478;-76
2021/12/26 06:49:59;;;;;;;17.70;15.80;;;-0.40;99.90;;;;;;5055843;28;20033;-76
2021/12/26 06:52:24;;;;;;;18.20;16.30;;;-0.40;99.90;;;;;;5049516;28;20026;-76
2021/12/26 06:54:50;;;;;;;20.73;18.08;;;-0.40;99.90;;;;;;5043839;28;20075;-76
2021/12/26 06:57:15;;;;;;;18.20;16.13;;;-0.40;99.90;;;;;;5040302;28;20025;-76
2021/12/26 06:59:41;;;;;;;18.13;16.23;;;-0.40;99.90;;;;;;5043248;28;20068;-76
2021/12/26 07:02:07;;;;;;;20.13;17.95;;;-0.40;99.90;;;;;;5047406;28;20497;-76
2021/12/26 07:04:32;;;;;;;21.80;19.40;;;-0.40;99.90;;;;;;5043227;28;20032;-76
2021/12/26 07:06:58;;;;;;;21.75;18.73;;;-0.30;99.90;;;;;;5040319;28;20029;-76
2021/12/26 07:09:23;;;;;;;18.52;16.60;;;-0.30;99.90;;;;;;5052456;28;20063;-76
2021/12/26 07:11:49;;;;;;;19.23;17.10;;;-0.40;99.90;;;;;;5052818;28;20033;-77
2021/12/26 07:14:14;;;;;;;19.45;16.73;;;-0.40;99.90;;;;;;5046019;28;20526;-77
2021/12/26 07:16:40;;;;;;;20.13;17.35;;;-0.40;99.90;;;;;;5048170;28;20083;-76
2021/12/26 07:19:05;;;;;;;19.65;16.35;;;-0.30;99.90;;;;;;5041319;28;20075;-75
2021/12/26 07:21:31;;;;;;;19.20;16.52;;;-0.40;99.90;;;;;;5054709;28;20039;-75
2021/12/26 07:23:56;;;;;;;23.45;20.05;;;-0.20;99.90;;;;;;5053226;28;20107;-77
2021/12/26 07:26:24;;;;;;;20.15;17.58;;;-0.20;99.90;;;;;;5053757;28;20036;-78
2021/12/26 07:28:50;;;;;;;19.52;17.45;;;-0.30;99.90;;;;;;5054103;28;20025;-77
2021/12/26 07:31:15;;;;;;;21.98;19.42;;;-0.20;99.90;;;;;;5052726;28;20116;-77
2021/12/26 07:33:41;;;;;;;21.88;18.58;;;-0.30;99.90;;;;;;5063244;28;20044;-77
2021/12/26 07:36:07;;;;;;;20.55;17.45;;;-0.30;99.90;;;;;;5057774;28;20386;-77
2021/12/26 07:38:32;;;;;;;17.25;15.40;;;-0.30;99.90;;;;;;5053825;28;20017;-77
2021/12/26 07:40:58;;;;;;;20.45;18.23;;;-0.20;99.90;;;;;;5045164;28;20017;-77
2021/12/26 07:43:23;;;;;;;19.10;17.10;;;-0.20;99.90;;;;;;5051976;28;20120;-76
2021/12/26 07:45:49;;;;;;;20.17;17.95;;;-0.20;99.90;;;;;;5053022;28;20033;-75
2021/12/26 07:48:15;;;;;;;20.38;17.52;;;-0.20;99.90;;;;;;5053020;28;20033;-75
2021/12/26 07:50:40;;;;;;;19.38;17.38;;;-0.20;99.90;;;;;;5051626;28;20025;-75
2021/12/26 07:53:10;;;;;;;19.08;17.08;;;-0.20;99.90;;;;;;5060355;28;20025;-76
2021/12/26 07:55:36;;;;;;;20.70;17.15;;;-0.10;99.90;;;;;;5053630;28;20102;-76
2021/12/26 07:58:02;;;;;;;20.95;17.75;;;-0.10;99.90;;;;;;5052695;28;20027;-77
2021/12/26 08:00:28;;;;;;;19.38;17.25;;;-0.10;99.90;;;;;;5052878;28;20029;-77
2021/12/26 08:02:54;;;;;;;19.45;16.88;;;-0.10;99.90;;;;;;5051437;28;20028;-76
2021/12/26 08:05:20;;;;;;;19.38;17.25;;;-0.10;99.90;;;;;;5056113;28;20486;-76
2021/12/26 08:07:46;;;;;;;20.92;18.50;;;0.00;99.90;;;;;;5053223;28;20040;-78
2021/12/26 08:10:12;;;;;;;19.05;17.05;;;0.10;99.90;;;;;;5050407;28;20025;-77
2021/12/26 08:12:38;;;;;;;20.70;18.30;;;0.00;99.90;;;;;;5041158;28;20029;-77
2021/12/26 08:15:04;;;;;;;20.35;18.15;;;0.00;99.90;;;;;;5037486;28;20025;-78
2021/12/26 08:17:30;;;;;;;21.17;18.52;;;0.00;99.90;;;;;;5052356;28;20082;-77
2021/12/26 08:19:56;;;;;;;21.52;19.20;;;0.00;99.90;;;;;;5052483;28;20021;-77
2021/12/26 08:22:22;;;;;;;24.80;21.58;;;0.00;99.90;;;;;;5051112;28;20035;-77
2021/12/26 08:24:48;;;;;;;21.13;18.65;;;0.00;99.90;;;;;;5064604;28;20390;-77
2021/12/26 08:27:14;;;;;;;21.48;18.80;;;0.00;99.90;;;;;;5052126;28;20029;-77
2021/12/26 08:29:40;;;;;;;21.15;18.60;;;-0.10;99.90;;;;;;5050987;28;20033;-77
2021/12/26 08:32:06;;;;;;;20.98;18.77;;;0.00;99.90;;;;;;5042784;28;20060;-77
2021/12/26 08:34:32;;;;;;;22.20;19.35;;;0.10;99.90;;;;;;5046300;28;20075;-76
2021/12/26 08:37:01;;;;;;;22.70;19.20;;;0.10;99.90;;;;;;5051883;28;20025;-77
2021/12/26 08:39:28;;;;;;;21.17;18.83;;;0.10;99.90;;;;;;5052047;28;20023;-77
2021/12/26 08:41:55;;;;;;;22.55;19.27;;;0.10;99.90;;;;;;5051817;28;20033;-77
2021/12/26 08:44:22;;;;;;;22.48;19.33;;;0.10;99.90;;;;;;5051634;28;20096;-77
2021/12/26 08:46:47;;;;;;;24.15;18.55;;;0.20;99.90;;;;;;5053603;28;20032;-77
2021/12/26 08:49:14;;;;;;;21.65;18.33;;;0.10;99.90;;;;;;5058214;28;20033;-76
2021/12/26 08:51:40;;;;;;;22.05;19.25;;;0.20;99.90;;;;;;5051876;28;20029;-76
2021/12/26 08:54:06;;;;;;;21.48;18.42;;;0.20;99.90;;;;;;5051576;28;20025;-76
2021/12/26 08:56:32;;;;;;;21.88;19.05;;;0.20;99.90;;;;;;5052103;28;20100;-76
2021/12/26 08:58:57;;;;;;;20.42;18.23;;;0.20;99.90;;;;;;5050129;28;20060;-76
2021/12/26 09:01:23;;;;;;;21.48;18.77;;;0.20;99.90;;;;;;5050573;28;20013;-76
2021/12/26 09:03:49;;;;;;;21.13;18.90;;;0.20;99.90;;;;;;5066843;28;20029;-76
2021/12/26 09:06:14;;;;;;;21.63;18.27;;;0.20;99.90;;;;;;5052496;28;20032;-76
2021/12/26 09:08:40;;;;;;;21.63;19.08;;;0.30;99.90;;;;;;5053216;28;20032;-76
2021/12/26 09:11:05;;;;;;;20.45;18.25;;;0.30;99.90;;;;;;5055940;28;20383;-76
2021/12/26 09:13:33;;;;;;;20.60;18.40;;;0.30;99.90;;;;;;5054450;28;20056;-76
2021/12/26 09:15:59;;;;;;;21.45;17.65;;;0.30;99.90;;;;;;5062852;28;20029;-75
2021/12/26 09:18:25;;;;;;;21.10;18.30;;;0.20;99.90;;;;;;5046095;28;20025;-76
2021/12/26 09:20:50;;;;;;;23.83;20.60;;;0.40;99.90;;;;;;5060224;28;20025;-76
2021/12/26 09:23:16;;;;;;;25.92;20.48;;;0.30;99.90;;;;;;5062593;28;20033;-76
2021/12/26 09:25:42;;;;;;;27.42;22.67;;;0.30;99.90;;;;;;5055843;28;20021;-77
2021/12/26 09:28:07;;;;;;;23.60;20.25;;;0.40;99.90;;;;;;5055139;28;20021;-77
2021/12/26 09:30:33;;;;;;;21.50;19.10;;;0.50;99.90;;;;;;5054595;28;20438;-76
2021/12/26 09:32:58;;;;;;;22.50;18.65;;;0.60;99.90;;;;;;5048729;28;20449;-76
2021/12/26 09:35:24;;;;;;;23.92;20.95;;;0.60;99.90;;;;;;5060279;28;20025;-76
2021/12/26 09:37:50;;;;;;;25.77;21.73;;;0.80;99.90;;;;;;5061299;28;20028;-77
2021/12/26 09:40:16;;;;;;;31.08;25.88;;;0.60;99.90;;;;;;5056668;28;20028;-77
2021/12/26 09:42:44;;;;;;;25.08;22.38;;;0.70;99.90;;;;;;5060683;28;20075;-77
2021/12/26 09:45:10;;;;;;;22.60;20.20;;;0.70;99.90;;;;;;5059654;28;20441;-77
2021/12/26 09:47:38;;;;;;;23.42;20.15;;;0.70;99.90;;;;;;5057454;28;20363;-77
2021/12/26 09:50:05;;;;;;;22.80;19.73;;;0.70;99.90;;;;;;5061342;28;20036;-77
2021/12/26 09:52:31;;;;;;;23.25;20.00;;;0.80;99.90;;;;;;5054699;28;20224;-77
2021/12/26 09:54:56;;;;;;;21.35;18.90;;;0.70;99.90;;;;;;5063665;28;20037;-77
2021/12/26 09:57:23;;;;;;;25.15;20.83;;;0.60;99.90;;;;;;5054012;28;20067;-77
2021/12/26 09:59:49;;;;;;;23.90;19.58;;;0.70;99.90;;;;;;5092893;28;20021;-77
2021/12/26 10:02:16;;;;;;;22.45;19.40;;;0.70;99.90;;;;;;5064117;28;20040;-77
2021/12/26 10:04:43;;;;;;;22.15;19.35;;;0.70;99.90;;;;;;5063086;28;20098;-77
2021/12/26 10:07:15;;;;;;;20.63;18.42;;;0.80;99.90;;;;;;5065200;28;20025;-77
2021/12/26 10:09:43;;;;;;;22.20;19.27;;;0.70;99.90;;;;;;5066889;28;20025;-77
2021/12/26 10:12:12;;;;;;;23.50;20.90;;;0.70;99.90;;;;;;5067823;28;20039;-80
2021/12/26 10:14:38;;;;;;;23.10;19.85;;;0.70;99.90;;;;;;5071602;28;20012;-77
2021/12/26 10:17:12;;;;;;;22.92;18.45;;;0.80;99.90;;;;;;5061955;28;20496;-76
2021/12/26 10:19:44;;;;;;;23.25;20.70;;;0.80;99.90;;;;;;5074608;28;20025;-77
2021/12/26 10:22:14;;;;;;;23.15;20.23;;;0.80;99.90;;;;;;5066198;28;20045;-75
2021/12/26 10:24:46;;;;;;;21.80;19.10;;;0.80;99.90;;;;;;5061804;28;20064;-76
2021/12/26 10:27:14;;;;;;;24.52;21.88;;;0.70;99.90;;;;;;5064190;28;20025;-78
2021/12/26 10:29:43;;;;;;;24.85;20.42;;;0.90;99.90;;;;;;5058115;28;20025;-78
2021/12/26 10:32:23;;;;;;;30.70;27.45;;;0.80;99.90;;;;;;5067337;28;20033;-76
2021/12/26 10:34:52;;;;;;;26.88;24.02;;;0.80;99.90;;;;;;5066015;28;20025;-77
2021/12/26 10:37:24;;;;;;;23.63;20.80;;;0.80;99.90;;;;;;5064474;28;20024;-77
2021/12/26 10:39:54;;;;;;;21.80;19.20;;;0.80;99.90;;;;;;5066034;28;20021;-77
2021/12/26 10:42:28;;;;;;;23.55;21.02;;;0.80;99.90;;;;;;5063056;28;20127;-77
2021/12/26 10:44:56;;;;;;;19.85;17.73;;;1.00;99.90;;;;;;5064291;28;20032;-77
2021/12/26 10:47:34;;;;;;;23.08;19.73;;;0.80;99.90;;;;;;5064533;28;20545;-77
2021/12/26 10:50:06;;;;;;;23.23;19.65;;;0.80;99.90;;;;;;5069588;28;20494;-78
2021/12/26 10:52:38;;;;;;;21.00;18.80;;;0.80;99.90;;;;;;5066900;28;20103;-77
2021/12/26 10:55:13;;;;;;;23.60;21.05;;;0.70;99.90;;;;;;5066108;28;20111;-78
2021/12/26 10:57:44;;;;;;;23.97;20.13;;;0.80;99.90;;;;;;5055157;28;20045;-78
2021/12/26 11:00:12;;;;;;;24.33;20.95;;;0.80;99.90;;;;;;5063711;28;20036;-78
2021/12/26 11:02:40;;;;;;;23.10;20.08;;;0.90;99.90;;;;;;5054590;28;20048;-79
2021/12/26 11:05:12;;;;;;;24.33;20.38;;;0.80;99.90;;;;;;5063785;28;20029;-76
2021/12/26 11:07:41;;;;;;;21.48;18.20;;;0.90;99.90;;;;;;5057621;28;20119;-77
2021/12/26 11:10:28;;;;;;;23.67;21.10;;;0.90;99.90;;;;;;5057434;28;20036;-77
2021/12/26 11:12:59;;;;;;;22.02;19.65;;;1.00;99.90;;;;;;5050800;28;20521;-76
2021/12/26 11:15:45;;;;;;;22.40;20.08;;;1.00;99.90;;;;;;5053396;28;20108;-76
2021/12/26 11:18:14;;;;;;;23.45;20.95;;;1.00;99.90;;;;;;5046603;28;20028;-76
2021/12/26 11:20:45;;;;;;;22.48;19.33;;;1.10;99.90;;;;;;5047331;28;20036;-76
2021/12/26 11:23:15;;;;;;;19.20;17.10;;;1.10;99.90;;;;;;5052671;28;20025;-76
2021/12/26 11:25:42;;;;;;;19.83;17.40;;;1.00;99.90;;;;;;5053295;28;20029;-76
2021/12/26 11:28:10;;;;;;;17.60;15.65;;;1.00;99.90;;;;;;5056507;28;20021;-76
2021/12/26 11:30:35;;;;;;;18.13;16.23;;;1.00;99.90;;;;;;5055691;28;20636;-76
2021/12/26 11:33:02;;;;;;;17.48;15.73;;;1.00;99.90;;;;;;5048514;28;20043;-76
2021/12/26 11:35:30;;;;;;;17.85;15.98;;;1.10;99.90;;;;;;5060123;28;20478;-77
2021/12/26 11:37:57;;;;;;;17.83;15.57;;;1.10;99.90;;;;;;5049797;28;20506;-77
2021/12/26 11:40:23;;;;;;;17.33;15.52;;;1.10;99.90;;;;;;5053658;28;20051;-76
2021/12/26 11:43:00;;;;;;;17.65;15.52;;;1.10;99.90;;;;;;5057004;28;20038;-77
2021/12/26 11:45:35;;;;;;;17.20;15.40;;;1.10;99.90;;;;;;5057651;28;20474;-77
2021/12/26 11:48:25;;;;;;;18.15;16.10;;;1.00;99.90;;;;;;5059428;28;20037;-77
2021/12/26 11:50:54;;;;;;;18.70;16.60;;;1.10;99.90;;;;;;5055728;28;20037;-77
2021/12/26 11:53:50;;;;;;;17.38;15.38;;;1.20;99.90;;;;;;5057963;28;20028;-77
2021/12/26 11:56:45;;;;;;;18.48;16.55;;;1.20;99.90;;;;;;5061566;28;20043;-77
2021/12/26 11:59:10;;;;;;;17.63;15.70;;;1.20;99.90;;;;;;5063763;28;20036;-77
2021/12/26 12:01:43;;;;;;;17.95;15.98;;;1.10;99.90;;;;;;5075542;28;20081;-77
2021/12/26 12:04:18;;;;;;;19.42;17.08;;;1.10;99.90;;;;;;5061858;28;20082;-77
2021/12/26 12:06:46;;;;;;;18.23;16.20;;;1.20;99.90;;;;;;5060149;28;20025;-77
2021/12/26 12:09:34;;;;;;;18.40;16.40;;;1.10;99.90;;;;;;5056526;28;20082;-77
2021/12/26 12:12:03;;;;;;;22.15;19.83;;;1.10;99.90;;;;;;5061397;28;20059;-77
2021/12/26 12:14:50;;;;;;;21.73;19.38;;;1.20;99.90;;;;;;5059998;28;20123;-77
2021/12/26 12:17:26;;;;;;;;;;;1.20;99.90;;;;;;5064200;28;20104;-76
2021/12/26 12:20:16;;;;;;;19.63;17.33;;;1.20;99.90;;;;;;5069770;28;19915;-77
2021/12/26 12:23:03;;;;;;;19.52;17.50;;;1.00;99.90;;;;;;5065961;28;20060;-77
2021/12/26 12:25:38;;;;;;;28.83;24.73;;;0.90;99.90;;;;;;5069556;28;20041;-77
2021/12/26 12:28:10;;;;;;;33.90;28.15;;;1.00;99.90;;;;;;5060997;28;20021;-77
2021/12/26 12:30:37;;;;;;;38.20;31.02;;;1.10;99.90;;;;;;5058469;28;20036;-77
2021/12/26 12:33:14;;;;;;;28.98;23.45;;;1.10;99.90;;;;;;5058720;28;20631;-77
2021/12/26 12:35:55;;;;;;;21.38;18.45;;;1.10;99.90;;;;;;5063391;28;20021;-77
2021/12/26 12:38:43;;;;;;;21.10;18.38;;;1.10;99.90;;;;;;5061378;28;20039;-77
2021/12/26 12:41:28;;;;;;;24.20;20.48;;;1.20;99.90;;;;;;5064573;28;20027;-77
2021/12/26 12:43:55;;;;;;;24.05;20.92;;;1.00;99.90;;;;;;5060314;28;20053;-77